Time;durP1;ratioP1;P1;durP2;ratioP2;P2;SDS_P1;SDS_P2;PMS_P1;PMS_P2;Temp;Humidity;BMP_temperature;BMP_pressure;BME280_temperature;BME280_humidity;BME280_pressure;Samples;Min_cycle;Max_cycle;Signal;HPM_P1;HPM_P2
2023/05/04 00:01:42;;;;;;;11.77;6.47;;;8.50;99.70;;;;;;5024617;28;20021;-77
2023/05/04 00:04:08;;;;;;;13.18;6.40;;;8.50;99.90;;;;;;5039329;28;20029;-77
2023/05/04 00:06:33;;;;;;;7.97;5.93;;;8.50;99.90;;;;;;5008135;28;20422;-77
2023/05/04 00:08:59;;;;;;;9.27;6.32;;;8.40;99.90;;;;;;5023444;28;20025;-77
2023/05/04 00:11:24;;;;;;;8.65;5.13;;;8.40;99.90;;;;;;5025229;28;20033;-77
2023/05/04 00:13:50;;;;;;;12.88;6.05;;;8.30;99.90;;;;;;5025106;28;20116;-77
2023/05/04 00:16:15;;;;;;;10.77;6.10;;;8.20;99.90;;;;;;5038021;28;20033;-76
2023/05/04 00:18:41;;;;;;;10.13;5.78;;;8.20;99.90;;;;;;5021816;28;20026;-76
2023/05/04 00:21:07;;;;;;;7.53;5.68;;;8.20;99.90;;;;;;5040097;28;20028;-77
2023/05/04 00:23:32;;;;;;;10.75;5.88;;;8.00;99.90;;;;;;5025120;28;20543;-77
2023/05/04 00:25:58;;;;;;;11.30;5.70;;;8.00;99.90;;;;;;5007176;28;20036;-77
2023/05/04 00:28:24;;;;;;;12.27;5.65;;;7.90;99.90;;;;;;5007716;28;20511;-77
2023/05/04 00:30:52;;;;;;;11.02;6.65;;;7.90;99.90;;;;;;5005485;28;20037;-77
2023/05/04 00:33:17;;;;;;;10.15;6.63;;;7.90;99.90;;;;;;5036751;28;20485;-77
2023/05/04 00:35:43;;;;;;;13.68;6.10;;;7.90;99.90;;;;;;5006611;28;20035;-77
2023/05/04 00:38:08;;;;;;;11.32;7.10;;;7.90;99.90;;;;;;5037611;28;20044;-77
2023/05/04 00:40:34;;;;;;;13.70;6.72;;;7.80;99.90;;;;;;5025402;28;20041;-77
2023/05/04 00:43:00;;;;;;;9.15;6.60;;;7.70;99.90;;;;;;5041633;28;20044;-77
2023/05/04 00:45:25;;;;;;;13.65;6.00;;;7.60;99.90;;;;;;5039507;28;20721;-77
2023/05/04 00:47:51;;;;;;;9.88;6.65;;;7.50;99.90;;;;;;5009160;28;20029;-77
2023/05/04 00:50:17;;;;;;;14.48;6.70;;;7.50;99.90;;;;;;5010760;28;20048;-77
2023/05/04 00:52:42;;;;;;;10.20;6.28;;;7.50;99.90;;;;;;5011560;28;20707;-77
2023/05/04 00:55:09;;;;;;;10.95;6.60;;;7.50;99.90;;;;;;5005026;28;20574;-77
2023/05/04 00:57:35;;;;;;;8.50;6.40;;;7.40;99.90;;;;;;5001885;28;20037;-77
2023/05/04 01:00:01;;;;;;;11.10;6.10;;;7.30;99.90;;;;;;5027359;28;20083;-77
2023/05/04 01:02:26;;;;;;;13.15;6.03;;;7.30;99.90;;;;;;5027434;28;20037;-76
2023/05/04 01:04:52;;;;;;;10.13;6.05;;;7.30;99.90;;;;;;5008056;28;20035;-77
2023/05/04 01:07:54;;;;;;;13.05;6.47;;;7.30;99.90;;;;;;5012392;28;20064;-77
2023/05/04 01:10:29;;;;;;;11.60;6.07;;;7.30;99.90;;;;;;5011104;28;20473;-77
2023/05/04 01:12:59;;;;;;;12.57;6.45;;;7.20;99.90;;;;;;5010693;28;20041;-77
2023/05/04 01:15:25;;;;;;;10.02;6.50;;;7.20;99.90;;;;;;5026862;28;20556;-77
2023/05/04 01:17:51;;;;;;;14.02;6.72;;;7.30;99.90;;;;;;5009645;28;20037;-76
2023/05/04 01:20:16;;;;;;;13.00;7.63;;;7.30;99.90;;;;;;5028563;28;20824;-77
2023/05/04 01:22:42;;;;;;;12.10;7.15;;;7.30;99.90;;;;;;5024281;28;20037;-77
2023/05/04 01:25:08;;;;;;;11.38;5.80;;;7.30;99.90;;;;;;5020752;28;20552;-77
2023/05/04 01:27:41;;;;;;;12.60;6.03;;;7.10;99.90;;;;;;5010345;28;20052;-77
2023/05/04 01:30:18;;;;;;;13.43;7.68;;;7.10;99.90;;;;;;5028236;28;20085;-76
2023/05/04 01:32:43;;;;;;;12.52;7.15;;;7.00;99.90;;;;;;5024129;28;20307;-77
2023/05/04 01:35:10;;;;;;;13.18;7.10;;;7.00;99.90;;;;;;5026728;28;20036;-77
2023/05/04 01:37:35;;;;;;;16.88;6.47;;;6.80;99.90;;;;;;5010938;28;20041;-78
2023/05/04 01:40:01;;;;;;;13.40;7.07;;;6.60;99.90;;;;;;5027672;28;20040;-77
2023/05/04 01:42:27;;;;;;;13.40;7.57;;;6.50;99.90;;;;;;5027914;28;20036;-77
2023/05/04 01:44:52;;;;;;;13.52;7.30;;;6.60;99.90;;;;;;5041545;28;20434;-76
2023/05/04 01:47:18;;;;;;;12.13;7.57;;;6.60;99.90;;;;;;5023598;28;20029;-77
2023/05/04 01:49:43;;;;;;;12.10;7.13;;;6.50;99.90;;;;;;5025512;28;20040;-77
2023/05/04 01:52:09;;;;;;;11.10;7.22;;;6.60;99.90;;;;;;5008413;28;20021;-77
2023/05/04 01:54:35;;;;;;;9.57;7.07;;;6.50;99.90;;;;;;5041828;28;20078;-76
2023/05/04 01:57:01;;;;;;;12.40;7.10;;;6.60;99.90;;;;;;5024948;28;20074;-77
2023/05/04 01:59:26;;;;;;;11.85;7.97;;;6.60;99.90;;;;;;5043792;28;20440;-77
2023/05/04 02:01:52;;;;;;;11.13;7.43;;;6.40;99.90;;;;;;5026106;28;20033;-77
2023/05/04 02:04:17;;;;;;;13.60;7.03;;;6.50;99.90;;;;;;5040214;28;20068;-77
2023/05/04 02:06:43;;;;;;;11.63;7.40;;;6.40;99.90;;;;;;5027227;28;20469;-77
2023/05/04 02:09:08;;;;;;;13.35;7.30;;;6.40;99.90;;;;;;5010962;28;20032;-77
2023/05/04 02:11:34;;;;;;;15.52;7.43;;;6.30;99.90;;;;;;5009963;28;20443;-77
2023/05/04 02:13:59;;;;;;;14.23;7.18;;;6.30;99.90;;;;;;5026961;28;20033;-77
2023/05/04 02:16:25;;;;;;;12.32;7.43;;;6.20;99.90;;;;;;5027344;28;20397;-77
2023/05/04 02:18:51;;;;;;;18.23;8.00;;;6.30;99.90;;;;;;5008995;28;20057;-77
2023/05/04 02:21:16;;;;;;;11.02;6.90;;;6.20;99.90;;;;;;5038280;28;20025;-77
2023/05/04 02:23:42;;;;;;;12.48;7.60;;;6.30;99.90;;;;;;5009267;28;20048;-76
2023/05/04 02:26:07;;;;;;;13.00;7.97;;;6.30;99.90;;;;;;5023667;28;20029;-76
2023/05/04 02:28:33;;;;;;;12.27;6.63;;;6.10;99.90;;;;;;5007983;28;20041;-77
2023/05/04 02:30:58;;;;;;;10.77;6.75;;;6.20;99.90;;;;;;5025878;28;20102;-77
2023/05/04 02:33:24;;;;;;;10.07;7.07;;;6.30;99.90;;;;;;5040378;28;20092;-77
2023/05/04 02:35:50;;;;;;;10.93;7.25;;;6.20;99.90;;;;;;5040915;28;20037;-77
2023/05/04 02:38:16;;;;;;;9.70;7.20;;;6.30;99.90;;;;;;5008216;28;20416;-77
2023/05/04 02:40:41;;;;;;;13.50;8.10;;;6.20;99.90;;;;;;5007946;28;20137;-77
2023/05/04 02:43:07;;;;;;;8.48;7.10;;;6.10;99.90;;;;;;5024320;28;20025;-77
2023/05/04 02:45:33;;;;;;;11.35;6.93;;;6.20;99.90;;;;;;5022741;28;20069;-77
2023/05/04 02:47:59;;;;;;;10.73;7.63;;;6.10;99.90;;;;;;5025459;28;20048;-78
2023/05/04 02:50:24;;;;;;;13.88;7.60;;;6.00;99.90;;;;;;5020974;28;20032;-76
2023/05/04 02:52:50;;;;;;;11.73;7.60;;;6.00;99.90;;;;;;5005516;28;20041;-77
2023/05/04 02:55:15;;;;;;;14.98;7.45;;;6.10;99.90;;;;;;5024607;28;20043;-77
2023/05/04 02:57:41;;;;;;;16.85;7.70;;;6.10;99.90;;;;;;5023430;28;20041;-77
2023/05/04 03:00:07;;;;;;;12.60;7.32;;;6.10;99.90;;;;;;5007076;28;20120;-77
2023/05/04 03:02:33;;;;;;;11.30;7.93;;;6.10;99.90;;;;;;5006941;28;20136;-76
2023/05/04 03:04:58;;;;;;;13.85;8.00;;;5.90;99.90;;;;;;5009570;28;20544;-77
2023/05/04 03:07:24;;;;;;;12.90;7.30;;;5.80;99.90;;;;;;5026223;28;20040;-77
2023/05/04 03:09:50;;;;;;;16.55;7.90;;;5.80;99.90;;;;;;5008910;28;20049;-76
2023/05/04 03:12:15;;;;;;;12.48;7.88;;;5.80;99.90;;;;;;5025094;28;20076;-77
2023/05/04 03:14:41;;;;;;;11.50;7.45;;;5.80;99.90;;;;;;5025073;28;20056;-77
2023/05/04 03:17:06;;;;;;;11.70;8.02;;;5.80;99.90;;;;;;5024989;28;20029;-77
2023/05/04 03:19:32;;;;;;;13.55;7.95;;;5.70;99.90;;;;;;5025016;28;20048;-77
2023/05/04 03:21:57;;;;;;;11.70;7.50;;;5.50;99.90;;;;;;5002163;28;20032;-76
2023/05/04 03:24:24;;;;;;;14.90;8.25;;;5.50;99.90;;;;;;5019513;28;20053;-77
2023/05/04 03:26:49;;;;;;;14.02;8.02;;;5.60;99.90;;;;;;5005095;28;20090;-77
2023/05/04 03:29:15;;;;;;;11.77;7.55;;;5.60;99.90;;;;;;5008478;28;20489;-77
2023/05/04 03:31:40;;;;;;;13.05;8.45;;;5.60;99.90;;;;;;5041656;28;20028;-77
2023/05/04 03:34:08;;;;;;;14.18;8.35;;;5.60;99.90;;;;;;5040847;28;20067;-77
2023/05/04 03:36:34;;;;;;;15.88;8.65;;;5.60;99.90;;;;;;5041396;28;20029;-77
2023/05/04 03:38:59;;;;;;;17.15;8.77;;;5.60;99.90;;;;;;5024640;28;20052;-77
2023/05/04 03:41:25;;;;;;;14.85;9.40;;;5.50;99.90;;;;;;5025624;28;20635;-77
2023/05/04 03:43:50;;;;;;;11.77;8.65;;;5.50;99.90;;;;;;5022441;28;20116;-77
2023/05/04 03:46:16;;;;;;;15.95;8.88;;;5.50;99.90;;;;;;5042186;28;20029;-77
2023/05/04 03:48:42;;;;;;;14.43;9.23;;;5.50;99.90;;;;;;5007225;28;20025;-76
2023/05/04 03:51:07;;;;;;;18.13;10.27;;;5.50;99.90;;;;;;5024931;28;20033;-77
2023/05/04 03:53:34;;;;;;;18.08;10.25;;;5.50;99.90;;;;;;5007283;28;20033;-77
2023/05/04 03:56:00;;;;;;;15.00;9.25;;;5.50;99.90;;;;;;5008023;28;20040;-77
2023/05/04 03:58:25;;;;;;;14.95;9.38;;;5.50;99.90;;;;;;5009745;28;20125;-77
2023/05/04 04:00:51;;;;;;;15.35;8.93;;;5.50;99.90;;;;;;5023877;28;20041;-77
2023/05/04 04:03:17;;;;;;;15.77;10.07;;;5.40;99.90;;;;;;5020654;28;20048;-76
2023/05/04 04:05:42;;;;;;;15.23;8.45;;;5.40;99.90;;;;;;5023778;28;20392;-76
2023/05/04 04:08:08;;;;;;;15.93;9.55;;;5.30;99.90;;;;;;5006721;28;20401;-78
2023/05/04 04:10:34;;;;;;;18.92;9.10;;;5.20;99.90;;;;;;5025409;28;20467;-77
2023/05/04 04:12:59;;;;;;;13.13;8.95;;;5.10;99.90;;;;;;5003349;28;20060;-77
2023/05/04 04:15:25;;;;;;;16.00;8.95;;;5.00;99.90;;;;;;5024614;28;20037;-77
2023/05/04 04:17:51;;;;;;;15.70;8.57;;;5.10;99.90;;;;;;5011817;28;20044;-77
2023/05/04 04:20:16;;;;;;;19.52;9.82;;;5.10;99.90;;;;;;5013419;28;20388;-77
2023/05/04 04:22:42;;;;;;;16.75;8.75;;;5.20;99.90;;;;;;5011692;28;20515;-76
2023/05/04 04:25:09;;;;;;;12.88;8.23;;;5.10;99.90;;;;;;5012227;28;20032;-77
2023/05/04 04:27:35;;;;;;;15.32;9.98;;;5.00;99.90;;;;;;5012117;28;20033;-77
2023/05/04 04:30:01;;;;;;;18.83;9.40;;;5.10;99.90;;;;;;5011627;28;20485;-77
2023/05/04 04:32:28;;;;;;;14.48;9.30;;;5.30;99.90;;;;;;5009712;28;20515;-77
2023/05/04 04:34:53;;;;;;;19.30;9.70;;;5.30;99.90;;;;;;5024595;28;20048;-77
2023/05/04 04:37:19;;;;;;;13.45;9.27;;;5.30;99.90;;;;;;5011448;28;20373;-77
2023/05/04 04:39:44;;;;;;;12.40;9.15;;;5.40;99.90;;;;;;5026303;28;20517;-77
2023/05/04 04:42:11;;;;;;;14.45;9.23;;;5.40;99.90;;;;;;5009511;28;20453;-77
2023/05/04 04:44:36;;;;;;;19.33;9.52;;;5.50;99.90;;;;;;5027797;28;20412;-78
2023/05/04 04:47:02;;;;;;;15.63;9.80;;;5.50;99.90;;;;;;5025919;28;20025;-77
2023/05/04 04:49:27;;;;;;;13.70;9.50;;;5.50;99.90;;;;;;5025746;28;20521;-77
2023/05/04 04:51:54;;;;;;;17.73;10.38;;;5.50;99.90;;;;;;5027378;28;20738;-78
2023/05/04 04:54:19;;;;;;;17.77;9.70;;;5.60;99.90;;;;;;5025397;28;20041;-78
2023/05/04 04:56:45;;;;;;;17.08;9.23;;;5.50;99.90;;;;;;5027063;28;20575;-77
2023/05/04 04:59:11;;;;;;;12.68;8.77;;;5.40;99.90;;;;;;5043875;28;20378;-76
2023/05/04 05:01:37;;;;;;;20.75;9.68;;;5.50;99.90;;;;;;5043729;28;20082;-77
2023/05/04 05:04:03;;;;;;;16.77;9.75;;;5.50;99.90;;;;;;5041496;28;20525;-77
2023/05/04 05:06:29;;;;;;;14.35;10.30;;;5.50;99.90;;;;;;5011546;28;20544;-77
2023/05/04 05:08:55;;;;;;;22.83;11.07;;;5.50;99.90;;;;;;5010066;28;20068;-77
2023/05/04 05:11:20;;;;;;;17.17;10.70;;;5.50;99.90;;;;;;5018444;28;20033;-77
2023/05/04 05:13:46;;;;;;;15.45;10.50;;;5.70;99.90;;;;;;5025765;28;20086;-77
2023/05/04 05:16:11;;;;;;;15.80;10.10;;;5.90;99.90;;;;;;5035036;28;20025;-77
2023/05/04 05:18:37;;;;;;;24.90;10.00;;;6.00;99.90;;;;;;5023532;28;20037;-77
2023/05/04 05:21:03;;;;;;;13.13;9.63;;;5.90;99.90;;;;;;5009738;28;20504;-77
2023/05/04 05:23:30;;;;;;;20.40;9.88;;;6.00;99.90;;;;;;5009969;28;20037;-77
2023/05/04 05:25:55;;;;;;;14.38;8.88;;;6.20;99.90;;;;;;5010097;28;20047;-77
2023/05/04 05:28:21;;;;;;;14.98;9.98;;;6.30;99.90;;;;;;5027306;28;20039;-77
2023/05/04 05:30:48;;;;;;;13.82;9.25;;;6.40;99.90;;;;;;5012288;28;20045;-77
2023/05/04 05:33:14;;;;;;;11.80;9.27;;;6.60;99.90;;;;;;5028325;28;20025;-76
2023/05/04 05:35:39;;;;;;;21.52;8.88;;;6.80;99.90;;;;;;5025178;28;20039;-77
2023/05/04 05:38:05;;;;;;;12.45;8.98;;;6.90;99.90;;;;;;5021958;28;20155;-77
2023/05/04 05:40:31;;;;;;;12.45;8.52;;;7.10;99.90;;;;;;5025497;28;20181;-76
2023/05/04 05:42:57;;;;;;;13.60;8.70;;;7.40;99.90;;;;;;5023998;28;20036;-77
2023/05/04 05:45:22;;;;;;;15.23;8.27;;;7.60;99.90;;;;;;5008769;28;20025;-77
2023/05/04 05:47:50;;;;;;;17.88;7.78;;;7.80;99.90;;;;;;5008858;28;20841;-77
2023/05/04 05:50:17;;;;;;;15.02;8.20;;;8.00;99.90;;;;;;5036454;28;20068;-76
2023/05/04 05:52:42;;;;;;;12.43;7.75;;;8.30;99.90;;;;;;5024924;28;20388;-77
2023/05/04 05:55:08;;;;;;;13.50;7.68;;;8.50;99.90;;;;;;5025327;28;20067;-77
2023/05/04 05:57:34;;;;;;;14.15;7.00;;;8.70;99.90;;;;;;5007962;28;20392;-77
2023/05/04 05:59:59;;;;;;;9.77;6.95;;;8.90;99.90;;;;;;5007193;28;20048;-77
2023/05/04 06:02:25;;;;;;;12.55;7.53;;;9.10;99.90;;;;;;5040199;28;20037;-77
2023/05/04 06:04:50;;;;;;;10.82;6.70;;;9.40;99.90;;;;;;5039181;28;20425;-76
2023/05/04 06:07:18;;;;;;;10.77;6.78;;;9.50;99.90;;;;;;5021387;28;20533;-77
2023/05/04 06:09:43;;;;;;;11.77;6.93;;;9.70;99.90;;;;;;5023330;28;20094;-77
2023/05/04 06:12:12;;;;;;;10.07;6.60;;;10.00;99.90;;;;;;5025082;28;20037;-77
2023/05/04 06:14:40;;;;;;;10.88;6.57;;;10.10;99.90;;;;;;5001339;28;20905;-77
2023/05/04 06:17:06;;;;;;;13.27;6.22;;;10.30;99.90;;;;;;5023492;28;20500;-77
2023/05/04 06:19:36;;;;;;;11.30;6.70;;;10.40;99.90;;;;;;4991655;28;21056;-76
2023/05/04 06:22:02;;;;;;;11.00;6.63;;;10.50;99.90;;;;;;5029492;28;20037;-77
2023/05/04 06:24:28;;;;;;;8.00;6.53;;;10.60;99.90;;;;;;5027137;28;20144;-77
2023/05/04 06:26:55;;;;;;;11.50;5.82;;;10.80;99.90;;;;;;5009491;28;20029;-76
2023/05/04 06:29:20;;;;;;;9.55;6.25;;;10.90;99.90;;;;;;5042031;28;20572;-77
2023/05/04 06:31:46;;;;;;;11.68;5.95;;;11.00;99.90;;;;;;5025222;28;20063;-77
2023/05/04 06:34:12;;;;;;;10.57;5.45;;;11.20;99.90;;;;;;5024621;28;20505;-77
2023/05/04 06:36:37;;;;;;;8.50;5.47;;;11.40;99.90;;;;;;5010621;28;20044;-77
2023/05/04 06:39:03;;;;;;;9.02;5.50;;;11.50;99.90;;;;;;4999963;28;20380;-77
2023/05/04 06:41:28;;;;;;;11.02;5.45;;;11.60;99.90;;;;;;5022137;28;20022;-77
2023/05/04 06:43:54;;;;;;;8.48;4.93;;;11.80;99.90;;;;;;5040372;28;20043;-76
2023/05/04 06:46:20;;;;;;;8.75;4.57;;;12.00;99.90;;;;;;5010243;28;20048;-77
2023/05/04 06:48:45;;;;;;;8.93;4.88;;;12.10;99.90;;;;;;5005526;28;20392;-77
2023/05/04 06:51:11;;;;;;;11.70;4.90;;;12.30;99.90;;;;;;5023573;28;20059;-78
2023/05/04 06:53:36;;;;;;;5.55;3.63;;;12.40;99.90;;;;;;5025864;28;20029;-77
2023/05/04 06:56:02;;;;;;;7.95;5.22;;;12.60;99.90;;;;;;5025155;28;20036;-77
2023/05/04 06:58:28;;;;;;;12.13;5.10;;;12.80;99.90;;;;;;5025572;28;20041;-76
2023/05/04 07:00:53;;;;;;;9.68;4.75;;;13.00;99.90;;;;;;5023027;28;20037;-77
2023/05/04 07:03:19;;;;;;;11.25;4.80;;;13.10;99.90;;;;;;5009162;28;20163;-77
2023/05/04 07:05:47;;;;;;;8.25;4.68;;;13.20;99.90;;;;;;5023964;28;20473;-77
2023/05/04 07:08:13;;;;;;;8.38;4.90;;;13.50;99.90;;;;;;5040889;28;20178;-76
2023/05/04 07:10:38;;;;;;;10.30;4.55;;;13.70;99.90;;;;;;5009251;28;20124;-75
2023/05/04 07:13:04;;;;;;;8.68;4.82;;;13.80;99.90;;;;;;5023531;28;20040;-75
2023/05/04 07:15:30;;;;;;;7.40;4.13;;;14.10;99.90;;;;;;5021098;28;20462;-76
2023/05/04 07:17:56;;;;;;;9.80;4.40;;;14.30;99.90;;;;;;5007124;28;20083;-75
2023/05/04 07:20:21;;;;;;;6.93;3.75;;;14.50;99.90;;;;;;5024019;28;20036;-75
2023/05/04 07:22:47;;;;;;;7.50;3.67;;;14.70;99.90;;;;;;5040904;28;20041;-75
2023/05/04 07:25:12;;;;;;;8.05;4.13;;;14.90;99.90;;;;;;5035167;28;20036;-76
2023/05/04 07:27:39;;;;;;;7.13;3.33;;;15.20;99.90;;;;;;5040891;28;20052;-76
2023/05/04 07:30:06;;;;;;;8.68;4.07;;;15.40;99.90;;;;;;5041526;28;20033;-76
2023/05/04 07:32:31;;;;;;;9.65;4.43;;;15.60;99.90;;;;;;5020562;28;20039;-76
2023/05/04 07:34:57;;;;;;;8.77;4.65;;;15.80;99.90;;;;;;5025453;28;20779;-77
2023/05/04 07:37:22;;;;;;;4.68;3.80;;;16.10;99.90;;;;;;5008993;28;20048;-76
2023/05/04 07:39:48;;;;;;;6.22;3.67;;;16.20;99.90;;;;;;5022739;28;20036;-76
2023/05/04 07:42:14;;;;;;;7.63;3.67;;;16.40;99.90;;;;;;5038991;28;20136;-76
2023/05/04 07:44:40;;;;;;;3.47;2.58;;;16.60;99.90;;;;;;5042148;28;20020;-75
2023/05/04 07:47:05;;;;;;;13.25;3.97;;;16.80;99.90;;;;;;5023229;28;20029;-75
2023/05/04 07:49:31;;;;;;;7.88;3.25;;;17.00;99.90;;;;;;5039723;28;20040;-75
2023/05/04 07:51:57;;;;;;;7.78;3.97;;;17.20;99.90;;;;;;5023561;28;21519;-76
2023/05/04 07:54:22;;;;;;;10.23;3.33;;;17.50;99.90;;;;;;5020673;28;20032;-75
2023/05/04 07:56:48;;;;;;;6.18;3.55;;;17.70;99.90;;;;;;5022791;28;20055;-76
2023/05/04 07:59:16;;;;;;;7.57;3.15;;;17.90;99.90;;;;;;5025095;28;20018;-76
2023/05/04 08:01:42;;;;;;;6.03;2.95;;;18.00;99.90;;;;;;5038942;28;20036;-76
2023/05/04 08:04:07;;;;;;;13.20;3.42;;;18.30;99.90;;;;;;5026051;28;20033;-77
2023/05/04 08:06:38;;;;;;;7.03;3.40;;;18.20;99.90;;;;;;5008015;28;20132;-77
2023/05/04 08:09:03;;;;;;;10.73;3.20;;;18.40;99.90;;;;;;5008191;28;20036;-77
2023/05/04 08:11:29;;;;;;;5.93;2.92;;;18.40;99.90;;;;;;5023955;28;20033;-76
2023/05/04 08:13:55;;;;;;;6.30;3.03;;;18.50;99.90;;;;;;5024167;28;20063;-77
2023/05/04 08:16:20;;;;;;;7.57;2.42;;;19.10;99.90;;;;;;5040273;28;20033;-77
2023/05/04 08:18:46;;;;;;;3.08;2.67;;;19.40;99.90;;;;;;5024864;28;20090;-76
2023/05/04 08:21:12;;;;;;;6.80;2.90;;;19.60;99.90;;;;;;5024399;28;20037;-77
2023/05/04 08:23:37;;;;;;;6.57;3.28;;;19.80;99.90;;;;;;5021643;28;20041;-76
2023/05/04 08:26:03;;;;;;;7.50;2.47;;;20.00;99.90;;;;;;5024051;28;20504;-75
2023/05/04 08:28:29;;;;;;;12.65;3.10;;;19.80;99.90;;;;;;5006538;28;20404;-77
2023/05/04 08:30:56;;;;;;;10.82;3.60;;;20.20;99.90;;;;;;5005879;28;20449;-75
2023/05/04 08:33:21;;;;;;;6.13;3.40;;;20.50;99.90;;;;;;5039641;28;20029;-75
2023/05/04 08:35:47;;;;;;;9.57;3.08;;;20.80;99.90;;;;;;5030267;28;20048;-75
2023/05/04 08:38:13;;;;;;;2.03;1.83;;;20.90;99.80;;;;;;5005036;28;20520;-76
2023/05/04 08:40:42;;;;;;;6.85;3.13;;;20.90;98.10;;;;;;5024886;28;20029;-75
2023/05/04 08:43:08;;;;;;;5.03;3.03;;;21.20;99.30;;;;;;5022284;28;20044;-75
2023/05/04 08:45:37;;;;;;;8.60;3.25;;;21.50;98.50;;;;;;5035172;28;20477;-76
2023/05/04 08:48:03;;;;;;;5.28;2.05;;;21.60;98.10;;;;;;5040133;28;20128;-75
2023/05/04 08:50:29;;;;;;;3.28;1.90;;;21.70;97.30;;;;;;5007208;28;20029;-76
2023/05/04 08:52:55;;;;;;;6.30;3.10;;;21.70;95.60;;;;;;5031657;28;20588;-75
2023/05/04 08:55:20;;;;;;;4.00;2.38;;;21.90;97.60;;;;;;5037849;28;20029;-75
2023/05/04 08:57:46;;;;;;;8.50;3.38;;;22.20;95.50;;;;;;5007866;28;20025;-76
2023/05/04 09:00:13;;;;;;;2.67;1.40;;;21.90;93.90;;;;;;5019849;28;20374;-75
2023/05/04 09:02:39;;;;;;;3.78;2.13;;;21.80;93.00;;;;;;5042383;28;20040;-75
2023/05/04 09:05:07;;;;;;;4.75;1.60;;;21.80;94.40;;;;;;5028093;28;20245;-75
2023/05/04 09:07:32;;;;;;;3.17;2.10;;;22.20;91.80;;;;;;5027007;28;20205;-75
2023/05/04 09:09:58;;;;;;;4.40;2.30;;;22.20;94.70;;;;;;5025194;28;20396;-75
2023/05/04 09:12:25;;;;;;;4.30;2.88;;;22.60;92.30;;;;;;5025163;28;20091;-75
2023/05/04 09:14:50;;;;;;;4.78;2.38;;;22.90;92.30;;;;;;5008986;28;20033;-76
2023/05/04 09:17:24;;;;;;;4.65;2.85;;;23.10;89.60;;;;;;5043495;28;20033;-77
2023/05/04 09:19:59;;;;;;;3.10;2.50;;;23.20;86.90;;;;;;5006545;28;20064;-76
2023/05/04 09:22:25;;;;;;;;;;;23.20;85.50;;;;;;5028096;28;20041;-76
2023/05/04 09:24:50;;;;;;;4.97;2.23;;;23.60;87.50;;;;;;5025189;28;19960;-76
2023/05/04 09:27:16;;;;;;;12.27;3.42;;;23.60;88.10;;;;;;5042529;28;20021;-76
2023/05/04 09:29:42;;;;;;;4.72;2.90;;;23.70;92.20;;;;;;5026364;28;20116;-76
2023/05/04 09:32:14;;;;;;;2.90;1.92;;;23.90;91.50;;;;;;5007380;28;20432;-76
2023/05/04 09:34:50;;;;;;;2.85;2.28;;;23.60;84.90;;;;;;5022842;28;20029;-76
2023/05/04 09:37:16;;;;;;;2.78;2.22;;;24.00;90.00;;;;;;5040257;28;20124;-76
2023/05/04 09:39:57;;;;;;;7.90;2.63;;;24.20;91.00;;;;;;5024195;28;20116;-76
2023/05/04 09:42:23;;;;;;;6.57;3.45;;;24.60;87.80;;;;;;5024754;28;20508;-75
2023/05/04 09:45:02;;;;;;;6.38;2.92;;;24.90;88.60;;;;;;5010730;28;20390;-76
2023/05/04 09:47:34;;;;;;;3.70;2.83;;;24.90;81.40;;;;;;5010478;28;20523;-75
2023/05/04 09:50:13;;;;;;;3.92;2.38;;;25.00;79.80;;;;;;5040792;28;20384;-75
2023/05/04 09:52:40;;;;;;;6.28;3.53;;;24.90;77.50;;;;;;5038881;28;20029;-75
2023/05/04 09:55:06;;;;;;;3.25;2.95;;;25.10;85.50;;;;;;5026883;28;20182;-76
2023/05/04 09:57:31;;;;;;;3.97;2.53;;;25.50;84.60;;;;;;5010146;28;20116;-75
2023/05/04 09:59:57;;;;;;;6.18;3.78;;;25.30;80.40;;;;;;5021262;28;20029;-75
2023/05/04 10:02:23;;;;;;;6.00;2.88;;;25.50;73.90;;;;;;5024477;28;20037;-75
2023/05/04 10:04:50;;;;;;;3.72;2.30;;;25.90;75.70;;;;;;5009362;28;20029;-75
2023/05/04 10:07:16;;;;;;;5.35;2.80;;;26.10;71.20;;;;;;5026156;28;20036;-75
2023/05/04 10:09:41;;;;;;;4.05;3.10;;;26.50;69.10;;;;;;5008361;28;20548;-75
2023/05/04 10:12:07;;;;;;;3.15;2.67;;;26.40;68.40;;;;;;5009908;28;20243;-75
2023/05/04 10:14:33;;;;;;;2.67;2.22;;;26.20;72.70;;;;;;5027306;28;20052;-75
2023/05/04 10:17:24;;;;;;;4.60;2.45;;;26.20;68.30;;;;;;5022138;28;20110;-75
2023/05/04 10:20:08;;;;;;;3.17;1.85;;;26.40;69.00;;;;;;5039031;28;20064;-75
2023/05/04 10:22:40;;;;;;;3.22;2.22;;;26.90;67.50;;;;;;5040481;28;20036;-75
2023/05/04 10:25:18;;;;;;;3.92;2.63;;;27.10;63.80;;;;;;5043058;28;20075;-75
2023/05/04 10:28:17;;;;;;;4.47;2.33;;;26.80;70.40;;;;;;5041130;28;20025;-74
2023/05/04 10:30:43;;;;;;;2.90;2.38;;;26.90;69.00;;;;;;5040911;28;20029;-75
2023/05/04 10:33:09;;;;;;;4.78;2.30;;;26.90;64.10;;;;;;5025837;28;20032;-77
2023/05/04 10:35:34;;;;;;;3.30;2.13;;;27.20;69.60;;;;;;5025740;28;20024;-77
2023/05/04 10:38:01;;;;;;;4.35;2.47;;;27.50;63.40;;;;;;5007269;28;20017;-76
2023/05/04 10:40:38;;;;;;;4.65;2.85;;;27.20;67.10;;;;;;5021690;28;20116;-77
2023/05/04 10:43:05;;;;;;;3.70;2.05;;;27.50;67.20;;;;;;5040986;28;20037;-76
2023/05/04 10:45:39;;;;;;;3.40;2.22;;;27.70;62.00;;;;;;5022438;28;20132;-76
2023/05/04 10:48:08;;;;;;;3.47;2.20;;;27.70;62.40;;;;;;5026314;28;20043;-77
2023/05/04 10:50:48;;;;;;;3.40;2.72;;;27.70;58.90;;;;;;5002369;28;20064;-76
2023/05/04 10:53:14;;;;;;;4.22;2.10;;;28.00;60.90;;;;;;5024815;28;20512;-77
2023/05/04 10:55:41;;;;;;;2.50;2.10;;;27.80;67.20;;;;;;5024227;28;20095;-76
2023/05/04 10:58:08;;;;;;;3.35;2.45;;;28.20;61.10;;;;;;5041310;28;20043;-77
2023/05/04 11:00:45;;;;;;;5.93;2.47;;;28.10;62.20;;;;;;5007781;28;20033;-76
2023/05/04 11:03:11;;;;;;;5.80;2.88;;;28.10;64.80;;;;;;5038036;28;20060;-76
2023/05/04 11:05:39;;;;;;;4.72;2.63;;;28.50;60.30;;;;;;5008184;28;20029;-77
2023/05/04 11:08:34;;;;;;;3.67;2.20;;;28.60;61.20;;;;;;5033662;28;20028;-74
2023/05/04 11:11:05;;;;;;;4.03;2.60;;;28.70;59.00;;;;;;5027943;28;20116;-74
2023/05/04 11:13:32;;;;;;;5.00;2.75;;;28.70;62.00;;;;;;5039822;28;20117;-75
2023/05/04 11:15:58;;;;;;;6.55;2.47;;;28.90;59.00;;;;;;5039958;28;20039;-75
2023/05/04 11:18:32;;;;;;;4.65;2.50;;;28.80;59.80;;;;;;5040514;28;20021;-75
2023/05/04 11:20:58;;;;;;;4.47;2.85;;;28.90;58.20;;;;;;5041764;28;20125;-75
2023/05/04 11:23:24;;;;;;;3.97;2.28;;;28.90;57.20;;;;;;5007403;28;20115;-75
2023/05/04 11:25:49;;;;;;;4.80;2.30;;;29.10;58.10;;;;;;5021961;28;20049;-75
2023/05/04 11:28:15;;;;;;;3.65;2.60;;;29.10;51.80;;;;;;5024008;28;20036;-75
2023/05/04 11:30:43;;;;;;;3.20;2.50;;;29.00;55.40;;;;;;5037445;28;20032;-75
2023/05/04 11:33:12;;;;;;;2.70;1.80;;;29.20;57.00;;;;;;5024563;28;20445;-75
2023/05/04 11:35:38;;;;;;;4.18;2.08;;;29.10;55.50;;;;;;5033818;28;20110;-76
2023/05/04 11:38:05;;;;;;;8.00;2.45;;;29.10;51.50;;;;;;5021990;28;20043;-75
2023/05/04 11:40:31;;;;;;;5.10;2.72;;;29.40;54.00;;;;;;5008970;28;20029;-75
2023/05/04 11:42:57;;;;;;;4.45;2.42;;;29.30;56.90;;;;;;5008048;28;21445;-75
2023/05/04 11:45:29;;;;;;;2.13;1.92;;;29.50;55.80;;;;;;5022809;28;20060;-76
2023/05/04 11:47:55;;;;;;;3.28;2.17;;;29.40;56.70;;;;;;5023537;28;20036;-74
2023/05/04 11:50:21;;;;;;;5.82;1.90;;;29.40;51.10;;;;;;5023103;28;20037;-75
2023/05/04 11:52:46;;;;;;;6.18;2.33;;;29.70;55.10;;;;;;5023040;28;20025;-77
2023/05/04 11:55:28;;;;;;;2.75;1.85;;;30.00;53.90;;;;;;5022376;28;20037;-77
2023/05/04 11:58:01;;;;;;;2.92;2.08;;;29.80;51.20;;;;;;5024875;28;20648;-77
2023/05/04 12:00:39;;;;;;;4.22;1.90;;;29.80;50.20;;;;;;5038782;28;20509;-76
2023/05/04 12:03:10;;;;;;;2.60;1.83;;;30.00;52.40;;;;;;5019968;28;20047;-76
2023/05/04 12:05:36;;;;;;;4.95;2.33;;;29.90;53.00;;;;;;5023595;28;20033;-75
2023/05/04 12:08:02;;;;;;;6.70;1.75;;;29.90;51.50;;;;;;5042148;28;20083;-75
2023/05/04 12:10:33;;;;;;;3.92;1.98;;;29.90;50.60;;;;;;5023681;28;20116;-75
2023/05/04 12:12:59;;;;;;;7.47;1.98;;;29.90;51.80;;;;;;5026369;28;20440;-75
2023/05/04 12:15:35;;;;;;;8.13;2.10;;;30.10;48.50;;;;;;5040750;28;20064;-76
2023/05/04 12:18:00;;;;;;;4.80;1.85;;;30.10;47.70;;;;;;5017670;28;20045;-75
2023/05/04 12:20:27;;;;;;;2.00;1.58;;;30.00;49.40;;;;;;5034920;28;20531;-75
2023/05/04 12:23:13;;;;;;;9.90;2.05;;;30.00;45.60;;;;;;5020547;28;20443;-76
2023/05/04 12:25:38;;;;;;;;;;;29.80;51.00;;;;;;5040447;28;20033;-75
2023/05/04 12:28:04;;;;;;;;;;;30.20;47.60;;;;;;5037572;28;19915;-75
2023/05/04 12:30:30;;;;;;;3.70;2.00;;;30.20;50.00;;;;;;5041616;28;19909;-75
2023/05/04 12:32:56;;;;;;;7.10;2.17;;;30.00;51.10;;;;;;5022204;28;20045;-76
2023/05/04 12:35:21;;;;;;;4.28;2.05;;;30.00;48.50;;;;;;5024629;28;20029;-76
2023/05/04 12:37:47;;;;;;;5.78;2.00;;;30.20;50.80;;;;;;5027957;28;20075;-75
2023/05/04 12:40:13;;;;;;;2.33;1.90;;;30.30;49.00;;;;;;5040192;28;20082;-75
2023/05/04 12:42:41;;;;;;;5.40;1.88;;;30.40;47.10;;;;;;5009824;28;20025;-75
2023/05/04 12:45:07;;;;;;;7.75;2.42;;;30.50;49.20;;;;;;5025977;28;20025;-76
2023/05/04 12:47:32;;;;;;;2.20;2.00;;;30.30;50.20;;;;;;5027499;28;20116;-75